createdAt,value
2023-03-07T00:00:19.714Z,98641.13
2023-03-07T00:01:01.539Z,98657.47
2023-03-07T00:01:43.189Z,98629.72
2023-03-07T00:02:25.083Z,98649.81
2023-03-07T00:03:06.872Z,98661.44
2023-03-07T00:03:48.588Z,98653.41
2023-03-07T00:04:30.642Z,98665.53
2023-03-07T00:05:14.836Z,98669.13
2023-03-07T00:06:08.714Z,98633.31
2023-03-07T00:06:50.353Z,98659.31
2023-03-07T00:07:32.114Z,98658.00
2023-03-07T00:08:13.816Z,98651.16
2023-03-07T00:08:58.760Z,98596.56
2023-03-07T00:09:40.405Z,98658.69
2023-03-07T00:10:22.094Z,98660.00
2023-03-07T00:11:08.581Z,98659.19
2023-03-07T00:11:50.697Z,98643.34
2023-03-07T00:12:32.335Z,98655.75
2023-03-07T00:13:13.955Z,98655.75
2023-03-07T00:13:55.952Z,98616.84
2023-03-07T00:14:37.688Z,98602.94
2023-03-07T00:15:19.349Z,98671.28
2023-03-07T00:16:05.756Z,98645.59
2023-03-07T00:16:51.215Z,98664.22
2023-03-07T00:17:35.154Z,98597.84
2023-03-07T00:18:16.800Z,98662.31
2023-03-07T00:18:58.435Z,98663.25
2023-03-07T00:19:44.819Z,98648.53
2023-03-07T00:20:26.455Z,98567.31
2023-03-07T00:21:13.391Z,98658.38
2023-03-07T00:21:54.998Z,98665.56
2023-03-07T00:22:37.674Z,98657.88
2023-03-07T00:23:19.317Z,98658.69
2023-03-07T00:24:01.050Z,98653.66
2023-03-07T00:24:42.780Z,98661.00
2023-03-07T00:25:24.363Z,98663.44
2023-03-07T00:26:11.776Z,98602.31
2023-03-07T00:26:54.621Z,98660.81
2023-03-07T00:27:36.720Z,98622.91
2023-03-07T00:28:18.330Z,98592.97
2023-03-07T00:28:59.931Z,98642.03
2023-03-07T00:29:41.532Z,98636.63
2023-03-07T00:30:23.111Z,98650.34
2023-03-07T00:31:07.442Z,98679.16
2023-03-07T00:31:49.190Z,98653.25
2023-03-07T00:32:31.095Z,98658.66
2023-03-07T00:33:12.867Z,98672.88
2023-03-07T00:33:54.497Z,98647.03
2023-03-07T00:34:36.158Z,98669.91
2023-03-07T00:35:17.937Z,98648.81
2023-03-07T00:36:05.272Z,98658.94
2023-03-07T00:36:46.959Z,98656.53
2023-03-07T00:37:30.735Z,98616.03
2023-03-07T00:38:12.400Z,98663.25
2023-03-07T00:38:54.524Z,98663.94
2023-03-07T00:39:36.102Z,98662.31
2023-03-07T00:40:18.020Z,98655.41
2023-03-07T00:41:07.812Z,98655.75
2023-03-07T00:41:49.596Z,98668.38
2023-03-07T00:42:31.174Z,98653.13
2023-03-07T00:43:12.738Z,98655.41
2023-03-07T00:43:55.948Z,98670.31
2023-03-07T00:44:37.705Z,98660.66
2023-03-07T00:45:19.339Z,98613.28
2023-03-07T00:46:01.682Z,98653.19
2023-03-07T00:46:43.359Z,98663.31
2023-03-07T00:47:25.029Z,98653.97
2023-03-07T00:48:06.767Z,98671.00
2023-03-07T00:48:48.764Z,98651.72
2023-03-07T00:49:32.530Z,98644.50
2023-03-07T00:50:14.391Z,98662.50
2023-03-07T00:50:56.770Z,98663.00
2023-03-07T00:51:39.968Z,98643.03
2023-03-07T00:52:21.945Z,98660.38
2023-03-07T00:53:03.840Z,98643.38
2023-03-07T00:53:46.351Z,98652.84
2023-03-07T00:54:28.056Z,98647.13
2023-03-07T00:55:10.482Z,98654.66
2023-03-07T00:56:05.494Z,98658.44
2023-03-07T00:56:47.173Z,98642.53
2023-03-07T00:57:29.103Z,98636.19
2023-03-07T00:58:10.732Z,98639.28
2023-03-07T00:58:52.733Z,98635.38
2023-03-07T00:59:34.526Z,98637.81
2023-03-07T01:00:16.182Z,98586.81
2023-03-07T01:00:58.879Z,98641.59
2023-03-07T01:01:41.648Z,98646.66
2023-03-07T01:02:23.296Z,98637.16
2023-03-07T01:03:04.979Z,98632.13
2023-03-07T01:03:49.657Z,98632.13
2023-03-07T01:04:31.482Z,98617.22
2023-03-07T01:05:13.331Z,98593.19
2023-03-07T01:05:55.643Z,98637.00
2023-03-07T01:06:37.951Z,98638.66
2023-03-07T01:07:19.699Z,98645.69
2023-03-07T01:08:01.473Z,98637.50
2023-03-07T01:08:44.006Z,98616.06
2023-03-07T01:09:26.921Z,98637.47
2023-03-07T01:10:09.373Z,98618.69
2023-03-07T01:10:51.209Z,98639.94
2023-03-07T01:11:34.362Z,98631.59
2023-03-07T01:12:16.096Z,98604.13
2023-03-07T01:12:57.750Z,98629.31
2023-03-07T01:13:39.856Z,98632.75
2023-03-07T01:14:21.539Z,98633.09
2023-03-07T01:15:05.265Z,98610.66
2023-03-07T01:15:47.093Z,98598.28
2023-03-07T01:16:31.391Z,98628.38
2023-03-07T01:17:13.105Z,98627.38
2023-03-07T01:17:54.799Z,98629.53
2023-03-07T01:18:37.005Z,98568.84
2023-03-07T01:19:20.844Z,98615.47
2023-03-07T01:20:06.988Z,98632.31
2023-03-07T01:20:49.754Z,98627.56
2023-03-07T01:21:34.289Z,98640.97
2023-03-07T01:22:18.133Z,98631.50
2023-03-07T01:23:00.214Z,98605.47
2023-03-07T01:23:42.566Z,98625.75
2023-03-07T01:24:25.578Z,98606.59
2023-03-07T01:25:08.050Z,98618.06
2023-03-07T01:25:49.936Z,98629.69
2023-03-07T01:26:33.136Z,98603.50
2023-03-07T01:27:15.124Z,98640.31
2023-03-07T01:27:57.053Z,98642.91
2023-03-07T01:28:43.230Z,98636.72
2023-03-07T01:29:25.428Z,98624.13
2023-03-07T01:30:08.366Z,98570.97
2023-03-07T01:30:59.806Z,98634.25
2023-03-07T01:31:42.238Z,98625.59
2023-03-07T01:32:24.263Z,98550.22
2023-03-07T01:33:05.914Z,98624.28
2023-03-07T01:33:48.424Z,98565.91
2023-03-07T01:34:30.544Z,98631.00
2023-03-07T01:35:12.189Z,98634.09
2023-03-07T01:35:54.460Z,98610.72
2023-03-07T01:36:37.308Z,98622.16
2023-03-07T01:37:19.747Z,98622.16
2023-03-07T01:38:01.740Z,98603.50
2023-03-07T01:38:43.407Z,98622.31
2023-03-07T01:39:26.234Z,98594.34
2023-03-07T01:40:12.586Z,98631.97
2023-03-07T01:40:54.628Z,98611.19
2023-03-07T01:41:37.442Z,98633.25
2023-03-07T01:42:21.811Z,98636.03
2023-03-07T01:43:25.796Z,98620.34
2023-03-07T01:44:19.805Z,98619.56
2023-03-07T01:45:33.289Z,98609.72
2023-03-07T01:46:18.234Z,98625.25
2023-03-07T01:47:03.879Z,98624.44
2023-03-07T01:48:02.851Z,98604.81
2023-03-07T01:48:51.099Z,98611.88
2023-03-07T01:49:34.087Z,98613.97
2023-03-07T01:50:19.147Z,98631.16
2023-03-07T01:51:01.576Z,98613.81
2023-03-07T01:51:49.306Z,98589.44
2023-03-07T01:52:35.553Z,98607.94
2023-03-07T01:53:21.554Z,98605.78
2023-03-07T01:54:06.166Z,98543.00
2023-03-07T01:54:52.471Z,98606.13
2023-03-07T01:55:37.359Z,98607.94
2023-03-07T01:56:26.358Z,98595.63
2023-03-07T01:57:08.438Z,98601.22
2023-03-07T01:57:52.600Z,98582.41
2023-03-07T01:58:38.065Z,98592.22
2023-03-07T01:59:34.621Z,98591.41
2023-03-07T02:00:25.404Z,98581.63
2023-03-07T02:01:10.047Z,98593.72
2023-03-07T02:01:52.025Z,98598.94
2023-03-07T02:02:35.221Z,98611.03
2023-03-07T02:03:26.140Z,98603.50
2023-03-07T02:04:28.253Z,98600.09
2023-03-07T02:05:19.286Z,98585.50
2023-03-07T02:06:04.034Z,98588.13
2023-03-07T02:06:47.099Z,98571.78
2023-03-07T02:07:35.155Z,98590.75
2023-03-07T02:08:20.073Z,98579.31
2023-03-07T02:09:03.357Z,98566.91
2023-03-07T02:09:48.062Z,98578.97
2023-03-07T02:10:30.995Z,98577.50
2023-03-07T02:11:12.994Z,98588.28
2023-03-07T02:11:56.757Z,98574.75
2023-03-07T02:12:40.226Z,98576.53
2023-03-07T02:13:21.914Z,98527.66
2023-03-07T02:14:03.527Z,98577.84
2023-03-07T02:14:48.461Z,98572.94
2023-03-07T02:15:30.145Z,98567.38
2023-03-07T02:16:12.083Z,98537.28
2023-03-07T02:16:54.246Z,98584.53
2023-03-07T02:17:36.346Z,98579.97
2023-03-07T02:18:24.241Z,98566.56
2023-03-07T02:19:47.517Z,98545.16
2023-03-07T02:20:52.014Z,98568.66
2023-03-07T02:21:44.017Z,98574.06
2023-03-07T02:22:26.240Z,98568.22
2023-03-07T02:23:13.682Z,98569.03
2023-03-07T02:24:14.384Z,98564.28
2023-03-07T02:25:01.003Z,98575.72
2023-03-07T02:25:51.067Z,98571.47
2023-03-07T02:26:32.713Z,98571.47
2023-03-07T02:27:15.074Z,98506.06
2023-03-07T02:27:58.931Z,98563.47
2023-03-07T02:28:42.583Z,98562.47
2023-03-07T02:29:25.098Z,98564.59
2023-03-07T02:30:08.193Z,98559.53
2023-03-07T02:30:55.442Z,98571.97
2023-03-07T02:31:37.827Z,98576.38
2023-03-07T02:32:19.632Z,98572.94
2023-03-07T02:33:01.358Z,98557.88
2023-03-07T02:33:43.134Z,98573.09
2023-03-07T02:34:29.263Z,98522.09
2023-03-07T02:35:23.814Z,98569.50
2023-03-07T02:36:11.301Z,98562.94
2023-03-07T02:37:05.021Z,98561.66
2023-03-07T02:37:52.149Z,98579.47
2023-03-07T02:38:38.139Z,98552.50
2023-03-07T02:39:22.782Z,98578.81
2023-03-07T02:40:11.721Z,98579.97
2023-03-07T02:40:55.469Z,98537.31
2023-03-07T02:41:39.098Z,98566.88
2023-03-07T02:42:31.070Z,98565.91
2023-03-07T02:43:25.767Z,98569.66
2023-03-07T02:44:07.435Z,98577.50
2023-03-07T02:44:57.307Z,98480.22
2023-03-07T02:45:39.821Z,98571.75
2023-03-07T02:46:21.502Z,98578.78
2023-03-07T02:47:03.289Z,98583.19
2023-03-07T02:47:46.142Z,98575.34
2023-03-07T02:48:31.029Z,98567.19
2023-03-07T02:49:13.818Z,98566.22
2023-03-07T02:49:55.764Z,98558.19
2023-03-07T02:50:37.588Z,98561.16
2023-03-07T02:51:19.211Z,98566.22
2023-03-07T02:52:02.721Z,98568.47
2023-03-07T02:52:44.881Z,98500.81
2023-03-07T02:53:27.148Z,98577.97
2023-03-07T02:54:09.100Z,98570.13
2023-03-07T02:54:50.750Z,98567.69
2023-03-07T02:55:33.603Z,98573.09
2023-03-07T02:56:17.985Z,98542.03
2023-03-07T02:56:59.681Z,98576.00
2023-03-07T02:57:41.280Z,98565.25
2023-03-07T02:58:22.984Z,98568.50
2023-03-07T02:59:04.797Z,98568.50
2023-03-07T02:59:46.767Z,98559.84
2023-03-07T03:00:28.564Z,98570.81
2023-03-07T03:01:10.978Z,98562.16
2023-03-07T03:01:52.816Z,98563.59
2023-03-07T03:02:35.046Z,98480.91
2023-03-07T03:03:16.899Z,98558.69
2023-03-07T03:03:59.065Z,98556.59
2023-03-07T03:04:40.779Z,98559.03
2023-03-07T03:05:24.046Z,98555.94
2023-03-07T03:06:07.323Z,98534.84
2023-03-07T03:06:50.077Z,98563.63
2023-03-07T03:07:31.748Z,98560.19
2023-03-07T03:08:13.487Z,98557.25
2023-03-07T03:08:55.196Z,98505.09
2023-03-07T03:09:36.808Z,98563.47
2023-03-07T03:10:18.983Z,98560.34
2023-03-07T03:11:00.983Z,98387.22
2023-03-07T03:11:43.798Z,98546.63
2023-03-07T03:12:25.731Z,98563.13
2023-03-07T03:13:07.452Z,98544.00
2023-03-07T03:13:49.117Z,98541.88
2023-03-07T03:14:30.784Z,98540.72
2023-03-07T03:15:12.476Z,98564.75
2023-03-07T03:15:57.834Z,98559.69
2023-03-07T03:16:40.198Z,98488.75
2023-03-07T03:17:21.930Z,98572.44
2023-03-07T03:18:03.596Z,98548.56
2023-03-07T03:18:45.624Z,98539.91
2023-03-07T03:19:29.092Z,98556.25
2023-03-07T03:20:12.923Z,98537.13
2023-03-07T03:20:54.602Z,98558.53
2023-03-07T03:21:36.224Z,98551.66
2023-03-07T03:22:17.920Z,98545.63
2023-03-07T03:23:02.074Z,98538.44
2023-03-07T03:23:44.071Z,98553.13
2023-03-07T03:24:25.797Z,98537.63
2023-03-07T03:25:10.662Z,98551.50
2023-03-07T03:26:01.253Z,98538.25
2023-03-07T03:26:45.685Z,98547.25
2023-03-07T03:27:28.001Z,98550.84
2023-03-07T03:28:09.694Z,98550.84
2023-03-07T03:28:54.272Z,98534.84
2023-03-07T03:29:36.322Z,98558.88
2023-03-07T03:30:19.508Z,98546.28
2023-03-07T03:31:04.099Z,98554.78
2023-03-07T03:31:46.477Z,98535.66
2023-03-07T03:32:28.191Z,98549.91
2023-03-07T03:33:09.803Z,98546.28
2023-03-07T03:33:52.635Z,98522.75
2023-03-07T03:34:34.417Z,98550.53
2023-03-07T03:35:16.150Z,98519.00
2023-03-07T03:36:00.715Z,98542.22
2023-03-07T03:36:42.511Z,98550.72
2023-03-07T03:37:25.248Z,98554.94
2023-03-07T03:38:07.330Z,98537.78
2023-03-07T03:38:49.354Z,98559.38
2023-03-07T03:39:30.967Z,98548.72
2023-03-07T03:40:14.712Z,98517.69
2023-03-07T03:40:57.654Z,98523.25
2023-03-07T03:41:39.273Z,98534.50
2023-03-07T03:42:20.917Z,98537.44
2023-03-07T03:43:03.010Z,98539.06
2023-03-07T03:43:44.717Z,98546.75
2023-03-07T03:44:26.495Z,98546.44
2023-03-07T03:45:10.017Z,98475.50
2023-03-07T03:45:56.107Z,98524.72
2023-03-07T03:46:39.001Z,98507.72
2023-03-07T03:47:20.964Z,98519.00
2023-03-07T03:48:02.697Z,98542.34
2023-03-07T03:48:44.701Z,98532.69
2023-03-07T03:49:27.251Z,98523.25
2023-03-07T03:50:10.656Z,98533.03
2023-03-07T03:51:04.884Z,98543.34
2023-03-07T03:51:46.601Z,98522.56
2023-03-07T03:52:28.489Z,98531.06
2023-03-07T03:53:10.058Z,98509.00
2023-03-07T03:53:52.064Z,98508.19
2023-03-07T03:54:36.064Z,98505.72
2023-03-07T03:55:18.106Z,98507.03
2023-03-07T03:56:05.909Z,98520.78
2023-03-07T03:56:47.659Z,98506.03
2023-03-07T03:57:29.330Z,98519.44
2023-03-07T03:58:11.158Z,98522.91
2023-03-07T03:58:55.359Z,98516.69
2023-03-07T03:59:37.067Z,98472.06
2023-03-07T04:00:21.092Z,98524.84
2023-03-07T04:01:07.581Z,98514.88
2023-03-07T04:01:49.665Z,98510.63
2023-03-07T04:02:34.048Z,98519.59
2023-03-07T04:03:15.877Z,98522.06
2023-03-07T04:03:58.576Z,98516.69
2023-03-07T04:04:40.245Z,98511.59
2023-03-07T04:05:22.039Z,98529.41
2023-03-07T04:06:05.803Z,98498.38
2023-03-07T04:06:48.267Z,98516.50
2023-03-07T04:07:29.870Z,98522.88
2023-03-07T04:08:11.511Z,98528.94
2023-03-07T04:08:54.293Z,98497.22
2023-03-07T04:09:35.886Z,98526.16
2023-03-07T04:10:19.395Z,98525.13
2023-03-07T04:11:01.248Z,98517.28
2023-03-07T04:11:42.948Z,98520.72
2023-03-07T04:12:25.100Z,98519.28
2023-03-07T04:13:06.776Z,98520.25
2023-03-07T04:13:48.904Z,98522.06
2023-03-07T04:14:30.610Z,98513.22
2023-03-07T04:15:12.539Z,98514.22
2023-03-07T04:15:57.190Z,98512.25
2023-03-07T04:16:39.167Z,98485.94
2023-03-07T04:17:20.885Z,98523.19
2023-03-07T04:18:02.609Z,98513.06
2023-03-07T04:18:44.749Z,98513.56
2023-03-07T04:19:27.030Z,98511.25
2023-03-07T04:20:17.275Z,98504.09
2023-03-07T04:20:58.910Z,98521.41
2023-03-07T04:21:41.050Z,98515.50
2023-03-07T04:22:23.147Z,98511.75
2023-03-07T04:23:04.842Z,98502.75
2023-03-07T04:23:49.502Z,98523.88
2023-03-07T04:24:31.199Z,98511.75
2023-03-07T04:25:12.942Z,98507.34
2023-03-07T04:25:59.655Z,98509.97
2023-03-07T04:26:42.125Z,98506.53
2023-03-07T04:27:24.500Z,98512.56
2023-03-07T04:28:06.218Z,98470.44
2023-03-07T04:28:51.447Z,98451.97
2023-03-07T04:29:40.734Z,98504.56
2023-03-07T04:30:32.827Z,98503.75
2023-03-07T04:31:20.246Z,98493.28
2023-03-07T04:32:02.278Z,98503.09
2023-03-07T04:32:44.082Z,98492.28
2023-03-07T04:33:27.338Z,98493.28
2023-03-07T04:34:09.036Z,98482.81
2023-03-07T04:34:50.701Z,98495.25
2023-03-07T04:35:32.379Z,98485.09
2023-03-07T04:36:19.004Z,98494.25
2023-03-07T04:37:00.652Z,98480.19
2023-03-07T04:37:42.215Z,98480.84
2023-03-07T04:38:23.848Z,98501.41
2023-03-07T04:39:05.595Z,98487.19
2023-03-07T04:39:48.660Z,98475.78
2023-03-07T04:40:30.519Z,98442.44
2023-03-07T04:41:14.609Z,98491.44
2023-03-07T04:41:56.428Z,98484.41
2023-03-07T04:42:38.871Z,98487.03
2023-03-07T04:43:21.756Z,98487.03
2023-03-07T04:44:03.406Z,98482.78
2023-03-07T04:44:45.027Z,98483.44
2023-03-07T04:45:27.248Z,98486.22
2023-03-07T04:46:10.212Z,98461.38
2023-03-07T04:46:51.858Z,98479.81
2023-03-07T04:47:33.516Z,98492.75
2023-03-07T04:48:15.511Z,98487.50
2023-03-07T04:48:57.220Z,98475.25
2023-03-07T04:49:39.466Z,98453.84
2023-03-07T04:50:22.228Z,98441.09
2023-03-07T04:51:04.820Z,98472.28
2023-03-07T04:51:46.377Z,98454.66
2023-03-07T04:52:30.233Z,98470.47
2023-03-07T04:53:11.831Z,98480.13
2023-03-07T04:53:53.543Z,98407.66
2023-03-07T04:54:35.261Z,98461.19
2023-03-07T04:55:18.294Z,98398.94
2023-03-07T04:56:02.606Z,98453.78
2023-03-07T04:56:45.219Z,98472.25
2023-03-07T04:57:27.017Z,98434.03
2023-03-07T04:58:12.888Z,98471.59
2023-03-07T04:58:55.297Z,98465.88
2023-03-07T04:59:39.207Z,98472.44
2023-03-07T05:00:21.240Z,98461.13
2023-03-07T05:01:05.154Z,98462.59
2023-03-07T05:01:46.844Z,98461.13
2023-03-07T05:02:28.657Z,98446.75
2023-03-07T05:03:11.580Z,98454.75
2023-03-07T05:03:53.227Z,98453.94
2023-03-07T05:04:35.925Z,98426.50
2023-03-07T05:05:17.803Z,98457.00
2023-03-07T05:06:17.429Z,98455.22
2023-03-07T05:07:04.708Z,98448.16
2023-03-07T05:07:46.344Z,98448.66
2023-03-07T05:08:28.562Z,98433.66
2023-03-07T05:09:10.195Z,98452.25
2023-03-07T05:09:51.794Z,98460.28
2023-03-07T05:10:34.679Z,98449.81
2023-03-07T05:11:18.413Z,98452.41
2023-03-07T05:12:00.044Z,98425.97
2023-03-07T05:12:41.702Z,98458.47
2023-03-07T05:13:25.512Z,98441.78
2023-03-07T05:14:07.437Z,98417.66
2023-03-07T05:14:49.165Z,98415.97
2023-03-07T05:15:31.366Z,98437.53
2023-03-07T05:16:13.189Z,98429.56
2023-03-07T05:16:54.911Z,98430.00
2023-03-07T05:17:37.065Z,98452.91
2023-03-07T05:18:18.805Z,98440.63
2023-03-07T05:19:00.996Z,98439.97
2023-03-07T05:19:45.279Z,98447.34
2023-03-07T05:20:29.585Z,98367.84
2023-03-07T05:21:11.276Z,98418.09
2023-03-07T05:21:54.229Z,98431.28
2023-03-07T05:22:35.934Z,98417.41
2023-03-07T05:23:19.007Z,98439.59
2023-03-07T05:24:02.804Z,98428.97
2023-03-07T05:24:45.777Z,98436.44
2023-03-07T05:25:28.568Z,98432.00
2023-03-07T05:26:10.651Z,98432.81
2023-03-07T05:26:52.555Z,98421.88
2023-03-07T05:27:34.220Z,98435.44
2023-03-07T05:28:16.915Z,98431.84
2023-03-07T05:28:59.057Z,98416.13
2023-03-07T05:29:40.772Z,98419.91
2023-03-07T05:30:22.371Z,98433.81
2023-03-07T05:31:04.287Z,98415.34
2023-03-07T05:31:46.582Z,98437.59
2023-03-07T05:32:28.370Z,98391.69
2023-03-07T05:33:10.117Z,98422.41
2023-03-07T05:33:52.703Z,98369.91
2023-03-07T05:34:34.373Z,98438.94
2023-03-07T05:35:16.292Z,98425.84
2023-03-07T05:36:00.668Z,98426.00
2023-03-07T05:36:43.545Z,98412.75
2023-03-07T05:37:25.497Z,98432.22
2023-03-07T05:38:08.112Z,98423.38
2023-03-07T05:38:49.872Z,98401.84
2023-03-07T05:39:31.892Z,98411.50
2023-03-07T05:40:14.132Z,98437.13
2023-03-07T05:40:59.288Z,98414.56
2023-03-07T05:41:40.875Z,98427.81
2023-03-07T05:42:22.572Z,98423.22
2023-03-07T05:43:04.880Z,98397.28
2023-03-07T05:43:46.934Z,98422.41
2023-03-07T05:44:28.513Z,98425.66
2023-03-07T05:45:11.570Z,98405.38
2023-03-07T05:45:53.464Z,98423.66
2023-03-07T05:46:35.484Z,98419.25
2023-03-07T05:47:18.369Z,98306.25
2023-03-07T05:48:00.064Z,98428.72
2023-03-07T05:48:41.708Z,98419.47
2023-03-07T05:49:24.871Z,98414.81
2023-03-07T05:50:07.824Z,98421.69
2023-03-07T05:50:49.604Z,98381.34
2023-03-07T05:51:32.719Z,98396.66
2023-03-07T05:52:14.313Z,98382.16
2023-03-07T05:52:56.038Z,98410.22
2023-03-07T05:53:41.453Z,98405.97
2023-03-07T05:54:23.282Z,98399.75
2023-03-07T05:55:05.334Z,98375.94
2023-03-07T05:55:47.739Z,98399.06
2023-03-07T05:56:32.311Z,98390.91
2023-03-07T05:57:14.054Z,98406.78
2023-03-07T05:57:56.060Z,98403.94
2023-03-07T05:58:37.886Z,98385.03
2023-03-07T05:59:19.713Z,98398.09
2023-03-07T06:00:06.303Z,98362.19
2023-03-07T06:00:55.662Z,98400.34
2023-03-07T06:01:37.672Z,98401.81
2023-03-07T06:02:19.364Z,98391.50
2023-03-07T06:03:04.330Z,98399.03
2023-03-07T06:03:47.687Z,98388.72
2023-03-07T06:04:29.432Z,98397.38
2023-03-07T06:05:11.126Z,98401.16
2023-03-07T06:05:52.809Z,98390.84
2023-03-07T06:06:34.487Z,98382.81
2023-03-07T06:07:16.174Z,98383.47
2023-03-07T06:07:58.062Z,98388.06
2023-03-07T06:08:39.704Z,98392.16
2023-03-07T06:09:23.504Z,98391.50
2023-03-07T06:10:07.014Z,98289.09
2023-03-07T06:10:54.184Z,98357.38
2023-03-07T06:11:36.213Z,98387.78
2023-03-07T06:12:18.488Z,98390.47
2023-03-07T06:13:00.271Z,98346.09
2023-03-07T06:13:41.876Z,98378.81
2023-03-07T06:14:23.971Z,98391.56
2023-03-07T06:15:06.366Z,98385.22
2023-03-07T06:15:54.272Z,98388.28
2023-03-07T06:16:36.809Z,98384.28
2023-03-07T06:17:18.566Z,98391.31
2023-03-07T06:18:00.278Z,98353.97
2023-03-07T06:18:42.044Z,98368.94
2023-03-07T06:19:23.723Z,98334.34
2023-03-07T06:20:07.357Z,98320.19
2023-03-07T06:21:03.296Z,98391.28
2023-03-07T06:21:48.490Z,98378.19
2023-03-07T06:22:31.830Z,98392.13
2023-03-07T06:23:13.528Z,98382.31
2023-03-07T06:23:56.284Z,98365.88
2023-03-07T06:24:38.062Z,98347.94
2023-03-07T06:25:21.623Z,98371.59
2023-03-07T06:26:04.880Z,98372.34
2023-03-07T06:26:46.745Z,98383.47
2023-03-07T06:27:35.772Z,98377.88
2023-03-07T06:28:17.678Z,98381.97
2023-03-07T06:29:00.178Z,98384.69
2023-03-07T06:29:42.236Z,98395.94
2023-03-07T06:30:23.871Z,98385.44
2023-03-07T06:31:10.318Z,98377.13
2023-03-07T06:31:52.141Z,98349.56
2023-03-07T06:32:33.911Z,98380.91
2023-03-07T06:33:17.487Z,98373.63
2023-03-07T06:33:59.254Z,98390.97
2023-03-07T06:34:41.701Z,98367.72
2023-03-07T06:35:23.374Z,98376.97
2023-03-07T06:36:11.242Z,98383.38
2023-03-07T06:36:54.685Z,98358.66
2023-03-07T06:37:36.359Z,98355.22
2023-03-07T06:38:18.361Z,98378.69
2023-03-07T06:39:00.345Z,98385.06
2023-03-07T06:39:42.802Z,98376.81
2023-03-07T06:40:24.523Z,98370.31
2023-03-07T06:41:06.358Z,98376.19
2023-03-07T06:41:51.125Z,98374.09
2023-03-07T06:42:32.871Z,98382.47
2023-03-07T06:43:14.890Z,98317.75
2023-03-07T06:43:56.656Z,98374.94
2023-03-07T06:44:44.438Z,98376.00
2023-03-07T06:45:26.372Z,98365.84
2023-03-07T06:46:08.250Z,98374.69
2023-03-07T06:46:53.719Z,98357.56
2023-03-07T06:47:36.205Z,98361.25
2023-03-07T06:48:19.675Z,98382.44
2023-03-07T06:49:01.309Z,98392.53
2023-03-07T06:49:43.222Z,98375.19
2023-03-07T06:50:34.661Z,98388.13
2023-03-07T06:51:17.102Z,98377.81
2023-03-07T06:52:00.295Z,98347.03
2023-03-07T06:52:42.140Z,98383.25
2023-03-07T06:53:23.766Z,98392.72
2023-03-07T06:54:05.910Z,98313.72
2023-03-07T06:54:47.735Z,98352.47
2023-03-07T06:55:29.393Z,98388.06
2023-03-07T06:56:11.081Z,98372.03
2023-03-07T06:56:55.069Z,98378.41
2023-03-07T06:57:38.294Z,98359.81
2023-03-07T06:58:21.160Z,98377.19
2023-03-07T06:59:03.287Z,98377.19
2023-03-07T06:59:45.295Z,98373.31
2023-03-07T07:00:27.515Z,98360.09
2023-03-07T07:01:18.915Z,98379.00
2023-03-07T07:02:03.654Z,98376.59
2023-03-07T07:02:45.776Z,98391.50
2023-03-07T07:03:27.564Z,98384.47
2023-03-07T07:04:11.452Z,98382.00
2023-03-07T07:04:59.536Z,98390.69
2023-03-07T07:05:42.463Z,98380.03
2023-03-07T07:06:24.146Z,98381.38
2023-03-07T07:07:07.395Z,98380.81
2023-03-07T07:07:49.882Z,98380.66
2023-03-07T07:08:31.616Z,98378.31
2023-03-07T07:09:14.169Z,98384.84
2023-03-07T07:09:56.167Z,98375.69
2023-03-07T07:10:38.150Z,98384.47
2023-03-07T07:11:21.307Z,98384.13
2023-03-07T07:12:04.945Z,98378.22
2023-03-07T07:12:47.626Z,98379.53
2023-03-07T07:13:29.239Z,98391.91
2023-03-07T07:14:13.879Z,98375.72
2023-03-07T07:14:56.851Z,98371.53
2023-03-07T07:15:38.702Z,98341.22
2023-03-07T07:16:20.829Z,98377.72
2023-03-07T07:17:05.488Z,98385.66
2023-03-07T07:17:47.458Z,98379.44
2023-03-07T07:18:29.124Z,98388.94
2023-03-07T07:19:10.837Z,98378.44
2023-03-07T07:19:52.461Z,98327.78
2023-03-07T07:20:34.233Z,98379.91
2023-03-07T07:21:17.117Z,98381.69
2023-03-07T07:21:58.739Z,98384.97
2023-03-07T07:22:40.409Z,98385.13
2023-03-07T07:23:22.313Z,98389.56
2023-03-07T07:24:04.754Z,98384.31
2023-03-07T07:24:46.953Z,98363.13
2023-03-07T07:25:28.589Z,98383.34
2023-03-07T07:26:10.346Z,98369.50
2023-03-07T07:26:52.026Z,98385.31
2023-03-07T07:27:33.697Z,98389.22
2023-03-07T07:28:16.102Z,98387.41
2023-03-07T07:28:57.806Z,98337.19
2023-03-07T07:29:39.456Z,98382.81
2023-03-07T07:30:21.912Z,98384.44
2023-03-07T07:31:04.059Z,98374.56
2023-03-07T07:31:46.498Z,98374.00
2023-03-07T07:32:28.731Z,98387.25
2023-03-07T07:33:10.671Z,98409.47
2023-03-07T07:33:52.542Z,98324.97
2023-03-07T07:34:35.063Z,98381.44
2023-03-07T07:35:16.901Z,98383.25
2023-03-07T07:35:59.626Z,98372.75
2023-03-07T07:36:41.657Z,98366.97
2023-03-07T07:37:23.984Z,98386.78
2023-03-07T07:38:05.611Z,98397.94
2023-03-07T07:38:47.282Z,98398.94
2023-03-07T07:39:29.083Z,98381.00
2023-03-07T07:40:11.712Z,98392.59
2023-03-07T07:40:53.495Z,98385.53
2023-03-07T07:41:35.204Z,98387.97
2023-03-07T07:42:17.199Z,98367.78
2023-03-07T07:43:18.643Z,98386.16
2023-03-07T07:44:04.814Z,98332.13
2023-03-07T07:44:51.279Z,98391.84
2023-03-07T07:45:32.978Z,98367.63
2023-03-07T07:46:14.797Z,98389.69
2023-03-07T07:46:57.232Z,98394.94
2023-03-07T07:47:38.970Z,98379.66
2023-03-07T07:48:20.886Z,98389.34
2023-03-07T07:49:03.026Z,98392.13
2023-03-07T07:49:44.926Z,98400.00
2023-03-07T07:50:26.760Z,98376.50
2023-03-07T07:51:08.459Z,98384.78
2023-03-07T07:51:52.162Z,98387.97
2023-03-07T07:52:34.324Z,98382.97
2023-03-07T07:53:18.913Z,98355.19
2023-03-07T07:54:01.580Z,98390.84
2023-03-07T07:54:43.216Z,98403.00
2023-03-07T07:55:25.388Z,98361.81
2023-03-07T07:56:08.237Z,98387.50
2023-03-07T07:56:49.930Z,98380.63
2023-03-07T07:57:31.988Z,98332.78
2023-03-07T07:58:14.034Z,98374.50
2023-03-07T07:58:55.868Z,98392.50
2023-03-07T07:59:37.630Z,98390.97
2023-03-07T08:00:21.501Z,98394.22
2023-03-07T08:01:13.342Z,98352.34
2023-03-07T08:01:55.031Z,98360.91
2023-03-07T08:02:37.236Z,98392.50
2023-03-07T08:03:19.009Z,98388.06
2023-03-07T08:04:00.646Z,98387.06
2023-03-07T08:04:42.962Z,98314.50
2023-03-07T08:05:24.647Z,98378.44
2023-03-07T08:06:06.443Z,98369.03
2023-03-07T08:06:48.135Z,98367.13
2023-03-07T08:07:29.774Z,98381.34
2023-03-07T08:08:11.426Z,98387.66
2023-03-07T08:08:54.029Z,98387.88
2023-03-07T08:09:35.756Z,98381.53
2023-03-07T08:10:17.945Z,98356.09
2023-03-07T08:10:59.559Z,98374.44
2023-03-07T08:11:41.476Z,98378.19
2023-03-07T08:12:27.845Z,98379.41
2023-03-07T08:13:13.695Z,98382.50
2023-03-07T08:13:55.986Z,98382.31
2023-03-07T08:14:37.596Z,98374.63
2023-03-07T08:15:21.513Z,98371.16
2023-03-07T08:16:14.903Z,98355.06
2023-03-07T08:16:56.760Z,98389.56
2023-03-07T08:17:38.394Z,98377.47
2023-03-07T08:18:20.115Z,98370.63
2023-03-07T08:19:01.856Z,98332.44
2023-03-07T08:19:43.499Z,98349.88
2023-03-07T08:20:25.696Z,98372.03
2023-03-07T08:21:08.593Z,98374.19
2023-03-07T08:21:50.257Z,98319.03
2023-03-07T08:22:32.830Z,98392.84
2023-03-07T08:23:14.411Z,98383.59
2023-03-07T08:23:57.082Z,98345.91
2023-03-07T08:24:40.922Z,98375.72
2023-03-07T08:25:24.500Z,98349.53
2023-03-07T08:26:08.229Z,98351.16
2023-03-07T08:26:49.917Z,98381.63
2023-03-07T08:27:31.825Z,98375.72
2023-03-07T08:28:13.443Z,98384.44
2023-03-07T08:28:55.325Z,98362.69